Time;durP1;ratioP1;P1;durP2;ratioP2;P2;SDS_P1;SDS_P2;PMS_P1;PMS_P2;Temp;Humidity;BMP_temperature;BMP_pressure;BME280_temperature;BME280_humidity;BME280_pressure;Samples;Min_cycle;Max_cycle;Signal;HPM_P1;HPM_P2
2023/06/30 00:04:12;;;;;;;1.83;1.73;;;;;;;;;;10087223;28;20049;-48
2023/06/30 00:09:04;;;;;;;4.65;1.70;;;;;;;;;;10104649;28;20059;-48
2023/06/30 00:13:56;;;;;;;1.88;1.77;;;;;;;;;;10104695;28;20036;-48
2023/06/30 00:18:48;;;;;;;1.98;1.77;;;;;;;;;;10105618;28;20045;-48
2023/06/30 00:23:40;;;;;;;2.95;1.60;;;;;;;;;;10105591;28;20478;-47
2023/06/30 00:28:31;;;;;;;1.90;1.75;;;;;;;;;;10103330;28;20111;-49
2023/06/30 00:33:25;;;;;;;2.80;1.92;;;;;;;;;;10105985;28;20345;-50
2023/06/30 00:38:17;;;;;;;2.00;1.77;;;;;;;;;;10104987;28;20045;-49
2023/06/30 00:43:08;;;;;;;1.98;1.77;;;;;;;;;;10086471;28;20044;-49
2023/06/30 00:48:00;;;;;;;2.38;1.60;;;;;;;;;;10101470;28;20041;-48
2023/06/30 00:52:52;;;;;;;4.03;1.77;;;;;;;;;;10085851;28;20471;-48
2023/06/30 00:57:44;;;;;;;2.10;1.70;;;;;;;;;;10084960;28;20099;-50
2023/06/30 01:02:43;;;;;;;30.05;4.25;;;;;;;;;;10087074;28;20041;-49
2023/06/30 01:07:49;;;;;;;5.47;1.85;;;;;;;;;;10103085;28;20385;-48
2023/06/30 01:12:42;;;;;;;4.13;1.70;;;;;;;;;;10084758;28;20045;-48
2023/06/30 01:17:43;;;;;;;1.67;1.48;;;;;;;;;;10084733;28;20037;-48
2023/06/30 01:22:49;;;;;;;1.50;1.40;;;;;;;;;;10083860;28;20040;-48
2023/06/30 01:27:41;;;;;;;2.28;1.83;;;;;;;;;;10079058;28;20033;-49
2023/06/30 01:32:33;;;;;;;4.75;1.90;;;;;;;;;;10046211;28;20037;-48
2023/06/30 01:37:25;;;;;;;1.50;1.40;;;;;;;;;;10082394;28;20041;-50
2023/06/30 01:42:18;;;;;;;2.22;1.98;;;;;;;;;;10086537;28;20424;-48
2023/06/30 01:47:10;;;;;;;2.25;1.70;;;;;;;;;;10080618;28;20133;-48
2023/06/30 01:52:02;;;;;;;2.65;1.48;;;;;;;;;;10061093;28;20308;-49
2023/06/30 01:56:54;;;;;;;1.90;1.42;;;;;;;;;;10085877;28;20425;-49
2023/06/30 02:01:46;;;;;;;1.95;1.38;;;;;;;;;;10091893;28;20076;-49
2023/06/30 02:06:38;;;;;;;1.70;1.60;;;;;;;;;;10109445;28;20041;-47
2023/06/30 02:11:31;;;;;;;2.05;1.52;;;;;;;;;;10109336;28;20411;-50
2023/06/30 02:16:22;;;;;;;1.77;1.67;;;;;;;;;;10109965;28;20471;-48
2023/06/30 02:21:14;;;;;;;1.55;1.30;;;;;;;;;;10080798;28;20041;-49
2023/06/30 02:26:06;;;;;;;1.67;1.58;;;;;;;;;;10068852;28;20348;-48
2023/06/30 02:30:58;;;;;;;1.67;1.58;;;;;;;;;;10105922;28;20041;-49
2023/06/30 02:35:53;;;;;;;3.17;2.20;;;;;;;;;;10107481;28;20037;-49
2023/06/30 02:40:45;;;;;;;1.60;1.50;;;;;;;;;;10062674;28;20136;-50
2023/06/30 02:45:37;;;;;;;1.65;1.55;;;;;;;;;;10068696;28;20357;-48
2023/06/30 02:50:30;;;;;;;2.45;1.95;;;;;;;;;;10051010;28;20048;-49
2023/06/30 02:55:23;;;;;;;1.50;1.40;;;;;;;;;;10066233;28;20103;-49
2023/06/30 03:00:16;;;;;;;2.58;1.50;;;;;;;;;;10051795;28;20467;-49
2023/06/30 03:05:08;;;;;;;2.28;2.08;;;;;;;;;;10068099;28;20386;-48
2023/06/30 03:10:00;;;;;;;2.08;1.60;;;;;;;;;;10087588;28;20045;-48
2023/06/30 03:14:52;;;;;;;1.67;1.40;;;;;;;;;;10088713;28;20049;-49
2023/06/30 03:19:44;;;;;;;3.35;1.42;;;;;;;;;;10106766;28;20080;-49
2023/06/30 03:24:36;;;;;;;1.73;1.52;;;;;;;;;;10087981;28;20471;-47
2023/06/30 03:29:28;;;;;;;1.77;1.67;;;;;;;;;;10105743;28;20053;-48
2023/06/30 03:34:21;;;;;;;1.65;1.50;;;;;;;;;;10071865;28;20368;-49
2023/06/30 03:39:13;;;;;;;1.30;1.13;;;;;;;;;;10094773;28;20056;-48
2023/06/30 03:44:08;;;;;;;1.98;1.40;;;;;;;;;;10087854;28;20053;-48
2023/06/30 03:49:00;;;;;;;1.85;1.75;;;;;;;;;;10095430;28;20064;-49
2023/06/30 03:53:52;;;;;;;2.33;1.63;;;;;;;;;;10098840;28;20095;-49
2023/06/30 03:58:45;;;;;;;2.33;1.67;;;;;;;;;;10088842;28;20103;-47
2023/06/30 04:03:38;;;;;;;1.92;1.70;;;;;;;;;;10066708;28;20428;-48
2023/06/30 04:08:30;;;;;;;1.88;1.40;;;;;;;;;;10103195;28;20052;-49
2023/06/30 04:13:22;;;;;;;1.40;1.30;;;;;;;;;;10104968;28;20057;-48
2023/06/30 04:18:14;;;;;;;1.90;1.73;;;;;;;;;;10101054;28;20091;-49
2023/06/30 04:23:05;;;;;;;1.85;1.42;;;;;;;;;;10102798;28;20368;-49
2023/06/30 04:27:57;;;;;;;1.50;1.38;;;;;;;;;;10049285;28;20076;-49
2023/06/30 04:32:49;;;;;;;2.15;1.67;;;;;;;;;;10104830;28;20045;-48
2023/06/30 04:37:41;;;;;;;1.77;1.63;;;;;;;;;;10091055;28;20089;-47
2023/06/30 04:42:33;;;;;;;1.65;1.50;;;;;;;;;;10066255;28;20042;-47
2023/06/30 04:47:24;;;;;;;1.65;1.55;;;;;;;;;;10086371;28;20443;-48
2023/06/30 04:52:16;;;;;;;1.67;1.58;;;;;;;;;;10102980;28;20060;-47
2023/06/30 04:57:09;;;;;;;1.85;1.50;;;;;;;;;;10102691;28;20048;-48
2023/06/30 05:02:01;;;;;;;1.60;1.40;;;;;;;;;;10103241;28;20040;-49
2023/06/30 05:06:53;;;;;;;1.70;1.60;;;;;;;;;;10102661;28;20049;-49
2023/06/30 05:11:45;;;;;;;1.67;1.58;;;;;;;;;;10101751;28;20056;-48
2023/06/30 05:16:37;;;;;;;2.05;1.77;;;;;;;;;;10101703;28;20062;-50
2023/06/30 05:21:29;;;;;;;2.17;1.75;;;;;;;;;;10101445;28;20080;-48
2023/06/30 05:26:21;;;;;;;1.50;1.40;;;;;;;;;;10101644;28;20033;-48
2023/06/30 05:31:13;;;;;;;1.50;1.40;;;;;;;;;;10050275;28;20463;-49
2023/06/30 05:36:05;;;;;;;1.35;1.25;;;;;;;;;;10105271;28;20459;-49
2023/06/30 05:40:58;;;;;;;1.58;1.48;;;;;;;;;;10092518;28;20029;-47
2023/06/30 05:45:50;;;;;;;1.60;1.50;;;;;;;;;;10095970;28;20072;-49
2023/06/30 05:50:42;;;;;;;1.63;1.52;;;;;;;;;;10104529;28;20088;-48
2023/06/30 05:55:34;;;;;;;1.30;1.20;;;;;;;;;;10084395;28;20037;-48
2023/06/30 06:00:27;;;;;;;1.70;1.60;;;;;;;;;;10066050;28;20076;-49
2023/06/30 06:05:19;;;;;;;1.90;1.80;;;;;;;;;;10066289;28;20045;-48
2023/06/30 06:10:11;;;;;;;1.50;1.40;;;;;;;;;;10075534;28;20054;-49
2023/06/30 06:15:03;;;;;;;1.95;1.83;;;;;;;;;;10070337;28;20041;-48
2023/06/30 06:19:55;;;;;;;1.65;1.52;;;;;;;;;;10071321;28;20533;-49
2023/06/30 06:24:47;;;;;;;1.65;1.52;;;;;;;;;;10065722;28;20542;-48
2023/06/30 06:29:39;;;;;;;1.88;1.48;;;;;;;;;;10060159;28;20064;-49
2023/06/30 06:34:32;;;;;;;1.65;1.40;;;;;;;;;;10078828;28;20060;-49
2023/06/30 06:39:24;;;;;;;3.22;1.58;;;;;;;;;;10077109;28;20042;-48
2023/06/30 06:44:16;;;;;;;1.55;1.45;;;;;;;;;;10069571;28;20049;-49
2023/06/30 06:49:08;;;;;;;1.95;1.83;;;;;;;;;;10090331;28;20052;-49
2023/06/30 06:54:00;;;;;;;1.60;1.50;;;;;;;;;;10073589;28;20120;-48
2023/06/30 06:58:52;;;;;;;2.67;2.03;;;;;;;;;;10066827;28;20064;-52
2023/06/30 07:03:44;;;;;;;3.95;3.58;;;;;;;;;;10049293;28;20779;-49
2023/06/30 07:08:36;;;;;;;6.18;4.05;;;;;;;;;;10073061;28;20187;-49
2023/06/30 07:13:28;;;;;;;2.10;1.92;;;;;;;;;;10037443;28;20439;-49
2023/06/30 07:18:20;;;;;;;4.28;3.88;;;;;;;;;;10066268;28;20087;-47
2023/06/30 07:23:13;;;;;;;6.85;3.88;;;;;;;;;;10106240;28;20132;-51
2023/06/30 07:28:05;;;;;;;2.72;2.50;;;;;;;;;;10100860;28;20072;-53
2023/06/30 07:32:57;;;;;;;7.22;5.15;;;;;;;;;;10057573;28;20434;-46
2023/06/30 07:37:50;;;;;;;7.45;5.05;;;;;;;;;;10066465;28;20571;-48
2023/06/30 07:42:43;;;;;;;9.75;6.63;;;;;;;;;;10096351;28;20077;-50
2023/06/30 07:47:36;;;;;;;11.13;6.53;;;;;;;;;;10096882;28;20069;-49
2023/06/30 07:52:28;;;;;;;7.28;5.88;;;;;;;;;;10089771;28;20083;-49
2023/06/30 07:57:20;;;;;;;4.88;4.38;;;;;;;;;;10106640;28;20557;-50
2023/06/30 08:02:12;;;;;;;8.02;6.70;;;;;;;;;;10085144;28;20045;-49
2023/06/30 08:07:04;;;;;;;15.27;7.70;;;;;;;;;;10088594;28;20053;-51
2023/06/30 08:11:57;;;;;;;10.95;6.40;;;;;;;;;;10066929;28;20064;-49
2023/06/30 08:16:49;;;;;;;9.18;6.55;;;;;;;;;;10065679;28;20083;-49
2023/06/30 08:21:41;;;;;;;11.10;6.45;;;;;;;;;;10069536;28;20471;-50
2023/06/30 08:26:33;;;;;;;9.18;6.70;;;;;;;;;;10062386;28;20049;-50
2023/06/30 08:31:24;;;;;;;9.93;7.57;;;;;;;;;;10063723;28;20446;-50
2023/06/30 08:36:16;;;;;;;6.88;6.18;;;;;;;;;;10056321;28;20053;-50
2023/06/30 08:41:08;;;;;;;7.70;6.85;;;;;;;;;;10050594;28;20378;-50
2023/06/30 08:46:02;;;;;;;10.57;6.07;;;;;;;;;;10064510;28;20042;-46
2023/06/30 08:50:54;;;;;;;6.68;6.03;;;;;;;;;;10056583;28;20049;-50
2023/06/30 08:55:46;;;;;;;9.30;6.85;;;;;;;;;;10068068;28;20436;-48
2023/06/30 09:00:39;;;;;;;8.90;6.88;;;;;;;;;;10075899;28;20544;-49
2023/06/30 09:05:32;;;;;;;8.80;7.18;;;;;;;;;;10079334;28;20056;-48
2023/06/30 09:10:27;;;;;;;10.15;8.00;;;;;;;;;;10079332;28;20079;-58
2023/06/30 09:15:19;;;;;;;7.40;6.57;;;;;;;;;;10072592;28;20061;-58
2023/06/30 09:20:12;;;;;;;7.70;7.00;;;;;;;;;;10069118;28;20033;-59
2023/06/30 09:25:04;;;;;;;10.75;6.88;;;;;;;;;;10103533;28;20049;-58
2023/06/30 09:29:56;;;;;;;10.13;6.38;;;;;;;;;;10093319;28;20041;-57
2023/06/30 09:34:53;;;;;;;14.52;9.07;;;;;;;;;;10086692;28;20044;-58
2023/06/30 09:39:50;;;;;;;18.23;7.97;;;;;;;;;;10092607;28;20359;-58
2023/06/30 09:44:42;;;;;;;10.48;6.88;;;;;;;;;;10072091;28;20628;-56
2023/06/30 09:49:34;;;;;;;11.73;8.82;;;;;;;;;;10101884;28;20060;-57
2023/06/30 09:54:26;;;;;;;16.83;10.00;;;;;;;;;;10103167;28;20132;-47
2023/06/30 09:59:36;;;;;;;18.55;9.52;;;;;;;;;;10051433;28;20470;-58
2023/06/30 10:04:30;;;;;;;12.55;8.82;;;;;;;;;;10073858;28;20491;-58
2023/06/30 10:09:24;;;;;;;15.25;10.55;;;;;;;;;;10103050;28;20081;-59
2023/06/30 10:14:16;;;;;;;16.15;9.43;;;;;;;;;;10032418;28;20461;-58
2023/06/30 10:19:09;;;;;;;17.90;12.05;;;;;;;;;;10067586;28;20048;-58
2023/06/30 10:24:02;;;;;;;14.18;10.63;;;;;;;;;;10108206;28;20040;-58
2023/06/30 10:28:54;;;;;;;13.73;9.65;;;;;;;;;;10078171;28;20137;-58
2023/06/30 10:33:47;;;;;;;14.93;9.02;;;;;;;;;;10053270;28;20072;-59
2023/06/30 10:38:40;;;;;;;11.60;8.32;;;;;;;;;;10065629;28;20173;-59
2023/06/30 10:44:05;;;;;;;10.63;7.85;;;;;;;;;;10101659;28;20057;-59
2023/06/30 10:48:57;;;;;;;12.13;8.32;;;;;;;;;;10091065;28;20099;-59
2023/06/30 10:53:49;;;;;;;10.90;7.07;;;;;;;;;;10069791;28;20037;-58
2023/06/30 10:58:44;;;;;;;8.88;6.75;;;;;;;;;;10076480;28;20083;-56
2023/06/30 11:03:57;;;;;;;11.73;7.70;;;;;;;;;;10074431;28;20141;-59
2023/06/30 11:08:59;;;;;;;15.38;8.55;;;;;;;;;;10069641;28;20056;-59
2023/06/30 11:14:06;;;;;;;12.40;6.55;;;;;;;;;;10096911;28;20474;-59
2023/06/30 11:18:59;;;;;;;11.80;7.50;;;;;;;;;;10072087;28;20073;-60
2023/06/30 11:23:52;;;;;;;8.73;5.25;;;;;;;;;;10069519;28;20361;-58
2023/06/30 11:28:47;;;;;;;10.68;5.68;;;;;;;;;;10069704;28;20037;-58
2023/06/30 11:33:40;;;;;;;6.93;5.80;;;;;;;;;;10069555;28;20045;-58
2023/06/30 11:38:40;;;;;;;8.20;7.05;;;;;;;;;;10069238;28;20574;-58
2023/06/30 11:43:32;;;;;;;11.93;6.18;;;;;;;;;;10062866;28;20068;-58
2023/06/30 11:48:25;;;;;;;8.52;5.53;;;;;;;;;;10057176;28;20046;-53
2023/06/30 11:53:17;;;;;;;11.20;7.53;;;;;;;;;;10052154;28;20483;-53
2023/06/30 11:58:08;;;;;;;7.80;7.03;;;;;;;;;;10064687;28;20050;-53
2023/06/30 12:03:02;;;;;;;8.32;6.45;;;;;;;;;;10057412;28;20045;-52
2023/06/30 12:07:55;;;;;;;8.30;5.90;;;;;;;;;;10063101;28;20140;-54
2023/06/30 12:12:57;;;;;;;9.68;5.63;;;;;;;;;;10062827;28;20380;-52
2023/06/30 12:17:52;;;;;;;15.60;9.38;;;;;;;;;;10052696;28;20046;-53
2023/06/30 12:22:44;;;;;;;11.40;9.50;;;;;;;;;;10047998;28;20376;-59
2023/06/30 12:27:41;;;;;;;10.55;7.72;;;;;;;;;;10062977;28;20379;-56
2023/06/30 12:32:37;;;;;;;9.55;6.68;;;;;;;;;;10055628;28;20810;-58
2023/06/30 12:37:30;;;;;;;11.98;6.60;;;;;;;;;;10059630;28;20042;-58
2023/06/30 12:42:22;;;;;;;10.27;6.35;;;;;;;;;;10056615;28;20057;-59
2023/06/30 12:47:14;;;;;;;12.25;6.20;;;;;;;;;;10054724;28;20112;-58
2023/06/30 12:52:06;;;;;;;9.55;6.78;;;;;;;;;;10061565;28;20063;-57
2023/06/30 12:56:58;;;;;;;10.60;5.68;;;;;;;;;;10052398;28;20432;-57
2023/06/30 13:01:50;;;;;;;9.00;5.78;;;;;;;;;;10033942;28;20045;-58
2023/06/30 13:06:42;;;;;;;9.70;6.70;;;;;;;;;;10059827;28;20073;-58
2023/06/30 13:11:34;;;;;;;7.03;6.15;;;;;;;;;;10069229;28;20436;-57
2023/06/30 13:16:26;;;;;;;6.25;5.65;;;;;;;;;;10051251;28;20052;-58
2023/06/30 13:21:18;;;;;;;6.95;5.90;;;;;;;;;;10037575;28;20128;-57
2023/06/30 13:26:10;;;;;;;9.45;5.97;;;;;;;;;;10068822;28;20041;-57
2023/06/30 13:31:05;;;;;;;6.40;5.63;;;;;;;;;;10076741;28;20048;-59
2023/06/30 13:35:57;;;;;;;7.13;5.68;;;;;;;;;;10068074;28;20446;-55
2023/06/30 13:40:48;;;;;;;7.95;6.57;;;;;;;;;;10082109;28;20073;-58
2023/06/30 13:45:40;;;;;;;7.10;5.53;;;;;;;;;;10101938;28;20490;-58
2023/06/30 13:50:33;;;;;;;7.72;5.07;;;;;;;;;;10062803;28;20062;-58
2023/06/30 13:55:25;;;;;;;6.75;5.68;;;;;;;;;;10066531;28;20096;-57
2023/06/30 14:00:20;;;;;;;6.13;5.50;;;;;;;;;;10045645;28;20473;-58
2023/06/30 14:05:12;;;;;;;8.15;6.43;;;;;;;;;;10037257;28;20081;-55
2023/06/30 14:10:04;;;;;;;8.65;6.88;;;;;;;;;;10067200;28;20473;-59
2023/06/30 14:14:56;;;;;;;8.20;6.45;;;;;;;;;;10078632;28;20056;-58
2023/06/30 14:19:50;;;;;;;12.27;7.05;;;;;;;;;;10060777;28;20136;-58
2023/06/30 14:24:42;;;;;;;8.95;6.10;;;;;;;;;;10089598;28;20080;-58
2023/06/30 14:29:35;;;;;;;8.18;6.18;;;;;;;;;;10104352;28;20064;-58
2023/06/30 14:34:27;;;;;;;11.88;6.00;;;;;;;;;;10030521;28;20048;-58
2023/06/30 14:39:19;;;;;;;7.22;5.70;;;;;;;;;;10106513;28;20064;-58
2023/06/30 14:44:10;;;;;;;9.07;6.00;;;;;;;;;;10095160;28;20058;-59
2023/06/30 14:49:04;;;;;;;8.48;6.25;;;;;;;;;;10057404;28;20041;-57
2023/06/30 14:53:56;;;;;;;18.55;6.88;;;;;;;;;;10085133;28;20045;-57
2023/06/30 14:58:49;;;;;;;8.85;6.50;;;;;;;;;;10093791;28;20071;-58
2023/06/30 15:03:41;;;;;;;9.85;7.55;;;;;;;;;;10066062;28;20360;-58
2023/06/30 15:08:34;;;;;;;8.10;6.53;;;;;;;;;;10087887;28;20135;-57
2023/06/30 15:13:26;;;;;;;10.35;6.40;;;;;;;;;;10089943;28;20045;-58
2023/06/30 15:18:18;;;;;;;10.55;6.85;;;;;;;;;;10051956;28;20045;-57
2023/06/30 15:23:10;;;;;;;12.45;6.68;;;;;;;;;;10075685;28;20173;-57
2023/06/30 15:28:02;;;;;;;9.23;5.97;;;;;;;;;;10070475;28;20357;-58
2023/06/30 15:32:54;;;;;;;7.55;5.85;;;;;;;;;;10065129;28;20099;-66
2023/06/30 15:37:46;;;;;;;12.75;5.47;;;;;;;;;;10053154;28;20103;-58
2023/06/30 15:42:38;;;;;;;10.32;6.03;;;;;;;;;;10049033;28;20132;-58
2023/06/30 15:47:30;;;;;;;7.35;5.30;;;;;;;;;;10097781;28;20037;-58
2023/06/30 15:52:22;;;;;;;9.95;5.40;;;;;;;;;;10073279;28;20099;-56
2023/06/30 15:57:13;;;;;;;13.10;5.55;;;;;;;;;;10105833;28;20111;-55
2023/06/30 16:02:05;;;;;;;8.70;5.55;;;;;;;;;;10078086;28;20038;-53
2023/06/30 16:06:57;;;;;;;8.10;5.43;;;;;;;;;;10085784;28;20421;-57
2023/06/30 16:11:50;;;;;;;11.70;5.65;;;;;;;;;;10096291;28;20041;-57
2023/06/30 16:16:41;;;;;;;10.07;5.47;;;;;;;;;;10082342;28;20459;-57
2023/06/30 16:21:33;;;;;;;11.73;6.13;;;;;;;;;;10087719;28;20076;-57
2023/06/30 16:26:25;;;;;;;17.17;7.97;;;;;;;;;;10068941;28;20107;-56
2023/06/30 16:31:17;;;;;;;15.05;7.25;;;;;;;;;;10064481;28;20057;-56
2023/06/30 16:36:09;;;;;;;11.10;5.85;;;;;;;;;;10065029;28;20049;-57
2023/06/30 16:41:01;;;;;;;10.20;5.93;;;;;;;;;;10087639;28;20056;-59
2023/06/30 16:45:55;;;;;;;13.02;6.82;;;;;;;;;;10103917;28;20056;-57
2023/06/30 16:50:47;;;;;;;11.50;5.70;;;;;;;;;;10079306;28;20042;-57
2023/06/30 16:55:39;;;;;;;11.55;5.82;;;;;;;;;;10057720;28;20037;-54
2023/06/30 17:00:32;;;;;;;13.15;7.75;;;;;;;;;;10050891;28;20052;-48
2023/06/30 17:05:24;;;;;;;10.27;7.75;;;;;;;;;;10088298;28;20053;-49
2023/06/30 17:10:16;;;;;;;17.73;7.40;;;;;;;;;;10054552;28;20045;-49
2023/06/30 17:15:09;;;;;;;13.05;8.60;;;;;;;;;;10055383;28;20163;-47
2023/06/30 17:20:03;;;;;;;18.05;8.65;;;;;;;;;;10026193;28;20042;-46
2023/06/30 17:24:55;;;;;;;14.07;9.13;;;;;;;;;;10025555;28;20049;-48
2023/06/30 17:29:56;;;;;;;10.57;9.02;;;;;;;;;;10029574;28;20042;-49
2023/06/30 17:34:47;;;;;;;14.70;6.85;;;;;;;;;;10060284;28;20061;-48
2023/06/30 17:39:39;;;;;;;10.60;7.22;;;;;;;;;;10068398;28;20053;-49
2023/06/30 17:44:31;;;;;;;9.80;5.47;;;;;;;;;;10064539;28;20422;-48
2023/06/30 17:49:27;;;;;;;9.68;7.10;;;;;;;;;;10051599;28;20042;-48
2023/06/30 17:54:19;;;;;;;8.98;7.15;;;;;;;;;;10058277;28;20066;-46
2023/06/30 17:59:14;;;;;;;14.18;7.00;;;;;;;;;;10043813;28;20050;-49
2023/06/30 18:04:06;;;;;;;12.45;8.18;;;;;;;;;;10052574;28;20042;-48
2023/06/30 18:08:58;;;;;;;10.02;7.10;;;;;;;;;;10026485;28;20092;-49
2023/06/30 18:13:50;;;;;;;8.85;6.60;;;;;;;;;;10025306;28;20468;-49
2023/06/30 18:18:42;;;;;;;9.32;7.03;;;;;;;;;;10026224;28;20054;-50
2023/06/30 18:23:33;;;;;;;10.30;7.10;;;;;;;;;;10027166;28;20068;-49
2023/06/30 18:28:25;;;;;;;7.65;6.53;;;;;;;;;;10027226;28;20042;-48
2023/06/30 18:33:17;;;;;;;10.20;6.60;;;;;;;;;;10027463;28;20084;-48
2023/06/30 18:38:09;;;;;;;10.13;7.63;;;;;;;;;;10059162;28;20049;-46
2023/06/30 18:43:01;;;;;;;9.07;6.38;;;;;;;;;;10052510;28;20171;-48
2023/06/30 18:47:53;;;;;;;7.32;6.57;;;;;;;;;;10034744;28;20046;-47
2023/06/30 18:52:45;;;;;;;6.53;5.53;;;;;;;;;;10033343;28;20060;-49
2023/06/30 18:57:36;;;;;;;6.93;6.22;;;;;;;;;;10033851;28;20423;-49
2023/06/30 19:02:30;;;;;;;6.40;5.75;;;;;;;;;;10044856;28;20133;-48
2023/06/30 19:07:23;;;;;;;7.75;6.95;;;;;;;;;;10040481;28;20081;-49
2023/06/30 19:12:14;;;;;;;8.27;7.43;;;;;;;;;;10039010;28;20427;-47
2023/06/30 19:17:06;;;;;;;12.90;7.32;;;;;;;;;;10071176;28;20383;-53
2023/06/30 19:21:59;;;;;;;8.57;6.53;;;;;;;;;;10062089;28;20103;-53
2023/06/30 19:26:51;;;;;;;12.38;7.03;;;;;;;;;;10055587;28;20049;-54
2023/06/30 19:31:43;;;;;;;14.90;6.60;;;;;;;;;;10070249;28;20418;-55
2023/06/30 19:36:36;;;;;;;10.35;6.72;;;;;;;;;;10070683;28;20129;-53
2023/06/30 19:41:28;;;;;;;8.32;5.72;;;;;;;;;;10070689;28;20410;-53
2023/06/30 19:46:20;;;;;;;6.38;5.70;;;;;;;;;;10071243;28;20057;-54
2023/06/30 19:51:12;;;;;;;9.05;5.80;;;;;;;;;;10070044;28;20050;-54
2023/06/30 19:56:04;;;;;;;7.63;6.07;;;;;;;;;;10070656;28;20442;-54
2023/06/30 20:00:56;;;;;;;5.45;4.85;;;;;;;;;;10070378;28;20045;-50
2023/06/30 20:05:48;;;;;;;9.23;5.47;;;;;;;;;;10070189;28;20459;-49
2023/06/30 20:10:40;;;;;;;6.88;5.60;;;;;;;;;;10070258;28;20095;-50
2023/06/30 20:15:33;;;;;;;8.45;5.55;;;;;;;;;;10069949;28;20133;-54
2023/06/30 20:20:26;;;;;;;7.93;5.05;;;;;;;;;;10069422;28;20049;-53
2023/06/30 20:25:18;;;;;;;5.63;5.07;;;;;;;;;;10069661;28;20073;-54
2023/06/30 20:30:10;;;;;;;6.57;5.00;;;;;;;;;;10069563;28;20132;-52
2023/06/30 20:35:02;;;;;;;5.38;4.95;;;;;;;;;;10069239;28;20061;-48
2023/06/30 20:39:54;;;;;;;5.22;4.72;;;;;;;;;;10068675;28;20175;-49
2023/06/30 20:44:47;;;;;;;5.35;4.85;;;;;;;;;;10068841;28;20045;-49
2023/06/30 20:49:40;;;;;;;7.97;6.28;;;;;;;;;;10068690;28;20053;-50
2023/06/30 20:54:32;;;;;;;6.35;4.78;;;;;;;;;;10068529;28;20435;-51
2023/06/30 20:59:26;;;;;;;5.47;4.55;;;;;;;;;;10068637;28;20037;-54
2023/06/30 21:04:18;;;;;;;5.88;5.35;;;;;;;;;;10067656;28;20049;-52
2023/06/30 21:09:10;;;;;;;5.22;4.30;;;;;;;;;;10067620;28;20053;-52
2023/06/30 21:14:02;;;;;;;5.22;4.72;;;;;;;;;;10068225;28;20495;-51
2023/06/30 21:18:54;;;;;;;5.97;5.38;;;;;;;;;;10067688;28;20034;-52
2023/06/30 21:23:46;;;;;;;5.32;4.20;;;;;;;;;;10067253;28;20049;-50
2023/06/30 21:28:38;;;;;;;4.57;3.80;;;;;;;;;;10067734;28;20402;-52
2023/06/30 21:33:30;;;;;;;5.35;4.18;;;;;;;;;;10067382;28;20068;-53
2023/06/30 21:38:22;;;;;;;4.47;3.78;;;;;;;;;;10050653;28;20383;-54
2023/06/30 21:43:14;;;;;;;6.90;4.20;;;;;;;;;;10065980;28;20386;-51
2023/06/30 21:48:06;;;;;;;6.55;4.15;;;;;;;;;;10039913;28;20046;-54
2023/06/30 21:52:57;;;;;;;5.32;4.82;;;;;;;;;;10028422;28;20053;-51
2023/06/30 21:57:49;;;;;;;5.40;4.38;;;;;;;;;;10044609;28;20054;-54
2023/06/30 22:02:42;;;;;;;5.60;4.78;;;;;;;;;;10039579;28;20045;-53
2023/06/30 22:07:34;;;;;;;5.88;4.70;;;;;;;;;;10036192;28;20052;-53
2023/06/30 22:12:26;;;;;;;13.00;9.35;;;;;;;;;;10051716;28;20033;-53
2023/06/30 22:17:18;;;;;;;7.38;6.50;;;;;;;;;;10078495;28;20045;-52
2023/06/30 22:22:09;;;;;;;9.52;6.03;;;;;;;;;;10075467;28;20456;-53
2023/06/30 22:27:01;;;;;;;7.75;5.00;;;;;;;;;;10038294;28;20058;-53
2023/06/30 22:31:53;;;;;;;6.32;4.93;;;;;;;;;;10047629;28;20219;-53
2023/06/30 22:36:45;;;;;;;5.57;4.57;;;;;;;;;;10054653;28;20502;-53
2023/06/30 22:41:37;;;;;;;7.75;5.07;;;;;;;;;;10067409;28;20121;-53
2023/06/30 22:46:29;;;;;;;4.97;4.50;;;;;;;;;;10070657;28;20103;-50
2023/06/30 22:51:22;;;;;;;5.55;4.85;;;;;;;;;;10071234;28;20498;-53
2023/06/30 22:56:14;;;;;;;6.00;4.03;;;;;;;;;;10070774;28;20049;-53
2023/06/30 23:01:07;;;;;;;4.80;4.28;;;;;;;;;;10070415;28;20132;-52
2023/06/30 23:05:59;;;;;;;6.68;4.18;;;;;;;;;;10068514;28;20063;-53
2023/06/30 23:10:54;;;;;;;7.30;4.55;;;;;;;;;;10070053;28;20041;-53
2023/06/30 23:15:46;;;;;;;6.70;4.53;;;;;;;;;;10073050;28;20098;-52
2023/06/30 23:20:38;;;;;;;5.07;4.57;;;;;;;;;;10075149;28;20095;-52
2023/06/30 23:25:33;;;;;;;6.28;4.07;;;;;;;;;;10078296;28;20968;-52
2023/06/30 23:30:28;;;;;;;4.43;3.20;;;;;;;;;;10069041;28;20374;-53
2023/06/30 23:35:19;;;;;;;7.50;3.63;;;;;;;;;;10065615;28;20364;-53
2023/06/30 23:40:11;;;;;;;7.82;3.78;;;;;;;;;;10067982;28;20097;-52
2023/06/30 23:45:03;;;;;;;5.35;3.60;;;;;;;;;;10066661;28;20103;-50
2023/06/30 23:49:55;;;;;;;4.68;4.28;;;;;;;;;;10059807;28;20125;-49
2023/06/30 23:54:47;;;;;;;4.50;3.85;;;;;;;;;;10062958;28;20562;-52
2023/06/30 23:59:39;;;;;;;4.97;3.35;;;;;;;;;;10063809;28;20348;-47
